Time;durP1;ratioP1;P1;durP2;ratioP2;P2;SDS_P1;SDS_P2;PMS_P1;PMS_P2;Temp;Humidity;BMP_temperature;BMP_pressure;BME280_temperature;BME280_humidity;BME280_pressure;Samples;Min_cycle;Max_cycle;Signal;HPM_P1;HPM_P2
2021/05/02 00:00:35;;;;;;;33.50;23.60;;;10.20;95.60;;;9.88;91.79;97595.38;5061546;28;20628;-71
2021/05/02 00:03:06;;;;;;;28.47;21.43;;;10.20;95.60;;;9.80;91.46;97594.28;5061004;28;20640;-71
2021/05/02 00:05:36;;;;;;;29.10;22.13;;;10.20;95.50;;;9.78;91.50;97601.38;5062504;28;20626;-71
2021/05/02 00:08:06;;;;;;;32.30;23.07;;;10.10;95.40;;;9.76;91.96;97603.25;5060841;28;20644;-71
2021/05/02 00:10:36;;;;;;;28.00;21.37;;;10.10;95.50;;;9.74;91.46;97605.13;5059613;28;20624;-71
2021/05/02 00:13:04;;;;;;;31.50;21.57;;;10.10;95.60;;;9.71;91.67;97603.59;5063787;28;20644;-71
2021/05/02 00:15:33;;;;;;;26.93;20.53;;;10.00;95.40;;;9.69;90.80;97610.69;5063538;28;20702;-71
2021/05/02 00:18:02;;;;;;;26.67;19.30;;;10.00;95.30;;;9.63;91.33;97610.28;5062722;28;20724;-71
2021/05/02 00:20:30;;;;;;;28.87;21.17;;;9.90;95.80;;;9.65;90.66;97622.28;5055470;28;20734;-71
2021/05/02 00:23:03;;;;;;;26.30;20.00;;;10.00;95.20;;;9.57;90.53;97618.53;5062198;28;20638;-71
2021/05/02 00:25:33;;;;;;;25.10;19.67;;;9.90;95.60;;;9.51;91.51;97617.19;5058625;28;20730;-73
2021/05/02 00:28:07;;;;;;;22.93;18.40;;;9.90;95.70;;;9.49;90.36;97624.31;5074227;28;21043;-71
2021/05/02 00:30:36;;;;;;;23.67;18.50;;;9.80;95.60;;;9.50;90.76;97622.53;5062426;28;20619;-71
2021/05/02 00:33:04;;;;;;;24.80;18.93;;;9.80;95.50;;;9.45;90.60;97635.84;5042992;28;21211;-71
2021/05/02 00:35:32;;;;;;;21.10;18.00;;;9.80;95.50;;;9.47;90.36;97628.78;5059695;28;20675;-71
2021/05/02 00:38:00;;;;;;;28.33;18.93;;;9.80;95.40;;;9.44;90.72;97635.97;5079288;28;20630;-71
2021/05/02 00:40:35;;;;;;;25.00;18.13;;;9.80;95.60;;;9.46;91.21;97636.72;5058769;28;21265;-71
2021/05/02 00:43:10;;;;;;;26.50;18.67;;;9.80;95.70;;;9.46;90.71;97636.72;5059470;28;20729;-71
2021/05/02 00:45:49;;;;;;;26.27;19.50;;;9.80;95.80;;;9.45;91.10;97640.25;5060035;28;20627;-71
2021/05/02 00:48:23;;;;;;;24.70;18.57;;;9.80;95.80;;;9.43;91.07;97636.94;5064393;28;20667;-71
2021/05/02 00:50:57;;;;;;;27.43;19.13;;;9.80;95.60;;;9.43;91.37;97642.13;5058100;28;20667;-71
2021/05/02 00:53:35;;;;;;;26.20;20.00;;;9.80;95.70;;;9.44;90.81;97643.78;5066145;28;20730;-71
2021/05/02 00:56:17;;;;;;;24.87;19.83;;;9.80;95.80;;;9.47;90.86;97648.75;5065161;28;20687;-71
2021/05/02 00:58:55;;;;;;;28.63;19.93;;;9.80;95.70;;;9.43;91.40;97652.53;5069229;28;21019;-71
2021/05/02 01:01:24;;;;;;;24.13;19.80;;;9.80;95.50;;;9.38;89.85;97658.06;5064006;28;20656;-71
2021/05/02 01:03:52;;;;;;;24.60;19.63;;;9.70;95.40;;;9.37;91.65;97655.56;5063584;28;20667;-71
2021/05/02 01:06:24;;;;;;;25.13;20.77;;;9.80;95.70;;;9.35;90.82;97657.47;5076807;28;20631;-71
2021/05/02 01:08:56;;;;;;;26.00;20.63;;;9.70;95.60;;;9.35;91.28;97661.81;5065070;28;21136;-71
2021/05/02 01:11:26;;;;;;;30.77;22.20;;;9.70;95.70;;;9.33;91.12;97663.69;5063883;28;20652;-71
2021/05/02 01:13:57;;;;;;;26.80;19.80;;;9.70;95.70;;;9.32;91.18;97667.25;5063728;28;20703;-71
2021/05/02 01:16:28;;;;;;;28.47;20.80;;;9.70;95.80;;;9.35;91.42;97665.28;5065343;28;20704;-71
2021/05/02 01:18:57;;;;;;;27.57;20.87;;;9.70;95.90;;;9.32;91.24;97665.50;5067033;28;20980;-71
2021/05/02 01:21:30;;;;;;;27.33;20.80;;;9.70;95.70;;;9.29;90.76;97665.69;5067673;28;20634;-71
2021/05/02 01:24:00;;;;;;;26.33;20.90;;;9.70;95.80;;;9.27;91.49;97662.34;5065388;28;20636;-71
2021/05/02 01:26:29;;;;;;;32.20;21.80;;;9.60;95.80;;;9.26;91.36;97665.91;5068386;28;20642;-71
2021/05/02 01:28:58;;;;;;;30.50;22.07;;;9.60;95.90;;;9.23;91.70;97673.06;5067759;28;20625;-71
2021/05/02 01:31:27;;;;;;;27.30;21.10;;;9.60;95.90;;;9.22;91.75;97674.84;5061125;28;20640;-71
2021/05/02 01:33:56;;;;;;;30.93;21.57;;;9.60;95.90;;;9.23;91.22;97675.69;5064483;28;20627;-71
2021/05/02 01:36:24;;;;;;;30.37;22.77;;;9.60;95.90;;;9.23;91.81;97673.06;5064999;28;21035;-71
2021/05/02 01:38:57;;;;;;;31.40;24.10;;;9.60;96.00;;;9.20;91.43;97681.09;5068135;28;21280;-71
2021/05/02 01:41:25;;;;;;;31.10;23.23;;;9.60;95.90;;;9.18;91.45;97683.81;5060579;28;20650;-71
2021/05/02 01:43:53;;;;;;;35.87;26.50;;;9.60;96.10;;;9.15;91.05;97689.22;5061230;28;20720;-71
2021/05/02 01:46:30;;;;;;;31.07;24.03;;;9.50;96.10;;;9.15;91.39;97684.00;5064352;28;20712;-71
2021/05/02 01:48:58;;;;;;;31.90;23.77;;;9.50;96.10;;;9.12;92.70;97683.41;5069069;28;20720;-71
2021/05/02 01:51:28;;;;;;;33.40;23.70;;;9.50;96.20;;;9.08;91.66;97687.16;5063983;28;20791;-71
2021/05/02 01:53:56;;;;;;;31.20;23.67;;;9.40;96.20;;;9.05;93.31;97693.41;5066957;28;21285;-71
2021/05/02 01:56:26;;;;;;;32.83;24.50;;;9.40;96.40;;;9.07;91.58;97690.69;5062601;28;20696;-71
2021/05/02 01:58:54;;;;;;;32.17;24.17;;;9.40;96.40;;;9.09;92.05;97689.63;5073558;28;20685;-71
2021/05/02 02:01:23;;;;;;;31.93;25.47;;;9.40;96.50;;;9.09;93.08;97700.03;5069249;28;20623;-71
2021/05/02 02:03:51;;;;;;;32.97;25.83;;;9.50;96.50;;;9.11;92.35;97703.41;5086909;28;20627;-71
2021/05/02 02:06:19;;;;;;;34.83;24.77;;;9.50;96.60;;;9.12;91.98;97709.41;5068985;28;20730;-71
2021/05/02 02:08:48;;;;;;;31.50;24.10;;;9.40;96.40;;;9.05;92.55;97703.81;5074082;28;20699;-71
2021/05/02 02:11:16;;;;;;;31.43;23.80;;;9.40;96.30;;;9.07;92.64;97716.72;5065435;28;21004;-71
2021/05/02 02:13:48;;;;;;;34.40;24.90;;;9.40;96.40;;;9.04;91.52;97714.31;5071866;28;20654;-71
2021/05/02 02:16:16;;;;;;;33.50;24.73;;;9.40;96.30;;;9.01;91.14;97725.75;5069356;28;20647;-71
2021/05/02 02:18:43;;;;;;;32.37;22.70;;;9.30;96.00;;;8.97;90.97;97716.47;5062057;28;20689;-71
2021/05/02 02:21:13;;;;;;;32.87;23.47;;;9.30;95.70;;;8.94;91.85;97718.47;5060801;28;20678;-71
2021/05/02 02:23:53;;;;;;;31.27;23.60;;;9.20;95.80;;;8.95;89.74;97726.16;5065915;28;20681;-71
2021/05/02 02:26:28;;;;;;;31.50;24.17;;;9.20;95.20;;;8.95;91.28;97728.75;5061254;28;20673;-71
2021/05/02 02:29:00;;;;;;;31.77;24.30;;;9.20;95.80;;;8.95;89.71;97727.94;5065201;28;20646;-71
2021/05/02 02:31:35;;;;;;;33.33;24.30;;;9.20;95.40;;;8.92;91.38;97733.34;5070263;28;21124;-71
2021/05/02 02:34:06;;;;;;;36.30;25.80;;;9.20;95.60;;;8.88;91.36;97737.09;5077591;28;21087;-71
2021/05/02 02:36:34;;;;;;;37.83;25.83;;;9.20;95.70;;;8.92;90.82;97733.34;5067063;28;21210;-71
2021/05/02 02:39:02;;;;;;;32.17;24.77;;;9.20;96.00;;;8.95;91.47;97744.38;5057945;28;20777;-71
2021/05/02 02:41:38;;;;;;;35.10;26.27;;;9.30;96.10;;;9.00;91.46;97744.06;5067910;28;20663;-71
2021/05/02 02:44:10;;;;;;;35.90;25.97;;;9.30;96.20;;;9.04;91.29;97743.75;5069340;28;20639;-71
2021/05/02 02:46:42;;;;;;;35.07;25.00;;;9.40;96.20;;;9.06;92.02;97751.44;5065334;28;21039;-71
2021/05/02 02:49:13;;;;;;;36.07;26.40;;;9.40;96.40;;;9.09;92.55;97754.66;5064561;28;20676;-71
2021/05/02 02:51:42;;;;;;;33.83;25.40;;;9.40;96.50;;;9.07;92.18;97763.53;5064467;28;21263;-71
2021/05/02 02:54:12;;;;;;;37.07;26.27;;;9.40;96.40;;;9.11;92.08;97764.97;5070059;28;21614;-71
2021/05/02 02:56:43;;;;;;;38.10;27.30;;;9.40;96.50;;;9.12;92.19;97766.66;5068425;28;20636;-71
2021/05/02 02:59:19;;;;;;;35.03;25.50;;;9.50;96.50;;;9.14;92.59;97773.41;5066575;28;20701;-71
2021/05/02 03:01:49;;;;;;;34.07;24.17;;;9.50;96.50;;;9.15;91.87;97764.66;5059723;28;20630;-71
2021/05/02 03:04:18;;;;;;;40.13;28.73;;;9.50;96.50;;;9.17;92.57;97767.16;5062018;28;20631;-71
2021/05/02 03:06:46;;;;;;;38.40;27.43;;;9.50;96.60;;;9.18;92.43;97772.25;5062780;28;21218;-71
2021/05/02 03:09:16;;;;;;;36.00;26.10;;;9.50;96.60;;;9.18;92.52;97774.84;5057022;28;20650;-71
2021/05/02 03:11:44;;;;;;;35.57;26.20;;;9.50;96.60;;;9.15;93.06;97777.66;5063238;28;20731;-71
2021/05/02 03:14:13;;;;;;;36.80;26.13;;;9.50;96.50;;;9.16;93.15;97784.53;5063533;28;20678;-71
2021/05/02 03:16:44;;;;;;;38.63;28.23;;;9.50;96.80;;;9.18;93.09;97780.06;5060203;28;20627;-71
2021/05/02 03:19:20;;;;;;;35.67;25.10;;;9.50;96.80;;;9.18;92.81;97790.47;5061682;28;21239;-71
2021/05/02 03:21:53;;;;;;;35.17;25.77;;;9.50;96.70;;;9.23;92.32;97783.22;5060643;28;21033;-71
2021/05/02 03:24:30;;;;;;;35.77;26.67;;;9.60;96.70;;;9.25;91.80;97793.50;5079047;28;20639;-66
2021/05/02 03:27:04;;;;;;;39.83;27.00;;;9.60;96.50;;;9.22;92.46;97797.13;5070473;28;20652;-70
2021/05/02 03:29:47;;;;;;;37.53;27.40;;;9.60;96.60;;;9.25;92.06;97802.13;5065116;28;20624;-70
2021/05/02 03:32:16;;;;;;;38.37;27.67;;;9.60;96.60;;;9.22;91.89;97799.75;5067949;28;20635;-70
2021/05/02 03:34:44;;;;;;;41.23;29.40;;;9.60;96.50;;;9.22;91.98;97812.75;5062228;28;20678;-70
2021/05/02 03:37:16;;;;;;;37.53;28.70;;;9.60;96.50;;;9.25;92.27;97809.94;5064573;28;20631;-70
2021/05/02 03:39:49;;;;;;;40.33;29.33;;;9.60;96.50;;;9.24;92.84;97815.25;5078814;28;20718;-70
2021/05/02 03:42:18;;;;;;;40.90;30.53;;;9.60;96.50;;;9.25;92.39;97820.34;5063521;28;20700;-70
2021/05/02 03:44:46;;;;;;;39.47;29.87;;;9.60;96.50;;;9.24;91.96;97829.06;5061942;28;21024;-70
2021/05/02 03:47:14;;;;;;;42.03;29.20;;;9.60;96.50;;;9.24;92.33;97820.44;5065536;28;21204;-70
2021/05/02 03:49:43;;;;;;;45.65;34.22;;;9.60;96.40;;;9.28;92.10;97832.31;5068150;28;20785;-70
2021/05/02 03:52:13;;;;;;;43.83;32.13;;;9.60;96.50;;;9.30;92.88;97835.66;5058843;28;20665;-70
2021/05/02 03:54:41;;;;;;;40.10;30.10;;;9.60;96.50;;;9.33;92.11;97838.88;5059235;28;21237;-70
2021/05/02 03:57:10;;;;;;;41.93;29.90;;;9.70;96.50;;;9.33;92.09;97833.66;5064091;28;20631;-70
2021/05/02 03:59:39;;;;;;;39.90;29.00;;;9.70;96.40;;;9.33;92.18;97844.06;5073014;28;20725;-70
2021/05/02 04:02:08;;;;;;;41.77;30.17;;;9.70;96.20;;;9.33;92.00;97843.25;5063701;28;21729;-70
2021/05/02 04:04:37;;;;;;;38.47;29.47;;;9.70;96.10;;;9.31;92.13;97851.16;5066727;28;21024;-70
2021/05/02 04:07:09;;;;;;;40.43;31.30;;;9.70;96.00;;;9.30;91.64;97851.25;5067894;28;20750;-70
2021/05/02 04:09:38;;;;;;;39.57;28.83;;;9.70;95.90;;;9.26;91.42;97849.78;5063746;28;21588;-70
2021/05/02 04:12:07;;;;;;;38.20;28.00;;;9.60;95.80;;;9.24;91.44;97855.09;5064769;28;20673;-70
2021/05/02 04:14:35;;;;;;;37.47;29.03;;;9.70;95.80;;;9.26;91.52;97855.00;5066750;28;20639;-70
2021/05/02 04:17:04;;;;;;;37.53;27.87;;;9.60;95.70;;;9.28;90.81;97863.56;5067673;28;20992;-70
2021/05/02 04:19:39;;;;;;;38.93;30.03;;;9.70;95.70;;;9.24;90.98;97870.72;5062516;28;20635;-70
2021/05/02 04:22:08;;;;;;;41.20;28.97;;;9.60;95.40;;;9.25;91.27;97867.19;5066357;28;20659;-70
2021/05/02 04:24:35;;;;;;;38.77;30.37;;;9.70;95.50;;;9.24;90.49;97875.91;5060342;28;20681;-70
2021/05/02 04:27:04;;;;;;;35.40;27.40;;;9.60;95.30;;;9.24;90.75;97883.72;5065193;28;20628;-70
2021/05/02 04:29:34;;;;;;;34.03;27.37;;;9.60;95.30;;;9.26;90.38;97883.63;5065563;28;20638;-70
2021/05/02 04:32:04;;;;;;;34.80;28.33;;;9.60;95.10;;;9.25;90.40;97892.38;5069555;28;20699;-70
2021/05/02 04:34:31;;;;;;;38.50;29.83;;;9.70;95.20;;;9.26;91.00;97888.81;5065589;28;20673;-70
2021/05/02 04:37:00;;;;;;;36.43;28.13;;;9.60;95.20;;;9.29;90.94;97894.69;5071512;28;20636;-70
2021/05/02 04:39:28;;;;;;;40.70;28.77;;;9.70;95.40;;;9.30;90.62;97901.53;5069445;28;20720;-70
2021/05/02 04:41:57;;;;;;;36.97;29.30;;;9.70;95.30;;;9.30;90.59;97906.72;5074426;28;20650;-70
2021/05/02 04:44:25;;;;;;;38.43;28.40;;;9.70;95.30;;;9.30;90.50;97911.94;5062613;28;20629;-70
2021/05/02 04:46:54;;;;;;;37.53;29.30;;;9.70;95.30;;;9.33;91.27;97910.91;5069770;28;21175;-70
2021/05/02 04:49:22;;;;;;;36.63;29.07;;;9.70;95.50;;;9.37;91.02;97909.75;5059893;28;21167;-70
2021/05/02 04:51:50;;;;;;;35.90;28.27;;;9.70;95.40;;;9.36;90.92;97921.94;5070475;28;20704;-70
2021/05/02 04:54:20;;;;;;;35.70;27.80;;;9.70;95.30;;;9.38;90.93;97919.22;5069177;28;20632;-70
2021/05/02 04:56:48;;;;;;;36.20;28.70;;;9.70;95.30;;;9.38;90.81;97924.44;5063688;28;20652;-70
2021/05/02 04:59:15;;;;;;;36.23;28.80;;;9.70;95.50;;;9.41;90.22;97935.47;5068332;28;21192;-70
2021/05/02 05:01:44;;;;;;;35.63;29.90;;;9.80;95.40;;;9.41;90.23;97941.53;5067800;28;20635;-70
2021/05/02 05:04:13;;;;;;;38.40;29.50;;;9.70;95.40;;;9.40;90.41;97944.22;5049696;28;21037;-70
2021/05/02 05:06:41;;;;;;;36.70;28.57;;;9.70;95.40;;;9.42;90.33;97942.34;5073594;28;20635;-70
2021/05/02 05:09:08;;;;;;;38.87;30.00;;;9.80;95.40;;;9.42;90.71;97934.53;5070017;28;20635;-70
2021/05/02 05:11:37;;;;;;;37.67;28.90;;;9.80;95.40;;;9.44;90.12;97948.28;5070246;28;20651;-70
2021/05/02 05:14:05;;;;;;;37.93;30.07;;;9.80;95.30;;;9.46;90.51;97943.84;5064162;28;21216;-70
2021/05/02 05:16:33;;;;;;;42.47;29.37;;;9.80;95.40;;;9.50;90.80;97946.13;5069536;28;20640;-70
2021/05/02 05:19:01;;;;;;;37.13;29.97;;;9.80;95.70;;;9.55;91.13;97949.25;5066392;28;21017;-70
2021/05/02 05:21:29;;;;;;;36.20;28.17;;;9.90;95.90;;;9.60;91.89;97957.56;5066290;28;20719;-70
2021/05/02 05:23:56;;;;;;;39.50;29.50;;;9.90;96.00;;;9.65;91.27;97960.72;5069224;28;21039;-70
2021/05/02 05:26:24;;;;;;;37.30;28.73;;;9.90;95.90;;;9.71;90.42;97968.13;5067342;28;20634;-70
2021/05/02 05:28:52;;;;;;;36.40;29.07;;;10.00;95.10;;;9.79;90.72;97962.38;5070218;28;20730;-70
2021/05/02 05:31:20;;;;;;;43.13;31.27;;;10.00;95.00;;;9.85;89.92;97970.63;5070545;28;20642;-70
2021/05/02 05:33:47;;;;;;;39.43;29.73;;;10.10;94.80;;;9.92;89.91;97967.53;5064468;28;21005;-70
2021/05/02 05:36:15;;;;;;;37.33;29.13;;;10.20;94.90;;;9.97;89.56;97973.28;5067417;28;20770;-70
2021/05/02 05:38:43;;;;;;;37.50;28.73;;;10.30;95.00;;;10.00;88.95;97973.06;5064828;28;21259;-70
2021/05/02 05:41:11;;;;;;;40.27;30.17;;;10.20;94.10;;;10.01;88.85;97969.53;5059095;28;20716;-70
2021/05/02 05:43:38;;;;;;;37.13;30.40;;;10.30;94.10;;;10.04;88.70;97973.69;5060320;28;21038;-70
2021/05/02 05:46:07;;;;;;;34.40;29.43;;;10.30;94.00;;;10.07;88.63;97974.34;5064048;28;20631;-70
2021/05/02 05:48:34;;;;;;;36.70;29.30;;;10.30;94.00;;;10.11;89.77;97975.78;5066824;28;20627;-70
2021/05/02 05:51:03;;;;;;;39.20;29.63;;;10.40;94.30;;;10.12;89.77;97976.63;5070402;28;20622;-70
2021/05/02 05:53:30;;;;;;;35.40;30.03;;;10.40;94.70;;;10.14;89.39;97983.38;5070826;28;20627;-70
2021/05/02 05:56:11;;;;;;;36.53;29.83;;;10.40;94.60;;;10.16;89.43;97978.88;5072684;28;20655;-70
2021/05/02 05:58:38;;;;;;;36.37;29.57;;;10.40;94.40;;;10.21;89.54;97976.81;5063901;28;20639;-70
2021/05/02 06:01:07;;;;;;;37.63;29.03;;;10.50;94.50;;;10.28;88.62;97983.25;5070582;28;20675;-70
2021/05/02 06:03:34;;;;;;;36.03;28.60;;;10.50;94.30;;;10.41;89.02;97984.09;5061717;28;21026;-70
2021/05/02 06:06:02;;;;;;;37.90;30.47;;;10.60;94.50;;;10.57;89.88;97992.50;5065736;28;20625;-70
2021/05/02 06:08:30;;;;;;;36.80;29.90;;;10.70;94.90;;;10.78;89.71;97980.56;5072237;28;20675;-70
2021/05/02 06:10:58;;;;;;;38.23;30.07;;;10.90;94.90;;;10.87;88.50;97999.84;5073951;28;20700;-70
2021/05/02 06:13:25;;;;;;;34.17;28.17;;;10.90;94.50;;;10.87;88.07;97996.41;5084184;28;20646;-70
2021/05/02 06:15:53;;;;;;;38.50;29.60;;;11.00;94.20;;;10.94;86.81;98000.25;5064824;28;21311;-70
2021/05/02 06:18:21;;;;;;;36.70;30.20;;;11.00;93.80;;;11.02;88.00;97998.75;5068795;28;20638;-70
2021/05/02 06:20:49;;;;;;;33.37;27.37;;;11.20;93.70;;;11.06;86.18;98002.81;5070663;28;20665;-70
2021/05/02 06:23:18;;;;;;;35.93;28.77;;;11.20;93.40;;;10.99;86.75;98004.19;5065330;28;21064;-71
2021/05/02 06:25:46;;;;;;;37.50;28.20;;;11.20;92.80;;;10.77;85.28;98002.41;5065526;28;20661;-71
2021/05/02 06:28:13;;;;;;;32.23;26.57;;;11.00;92.00;;;10.68;86.60;98008.25;5071455;28;21028;-71
2021/05/02 06:30:41;;;;;;;32.93;27.80;;;10.90;92.60;;;10.67;84.84;98003.97;5064211;28;20643;-71
2021/05/02 06:33:09;;;;;;;35.30;28.27;;;10.90;92.00;;;10.71;85.94;97998.44;5078239;28;20635;-71
2021/05/02 06:35:37;;;;;;;36.53;28.50;;;10.90;92.60;;;10.83;86.53;98001.00;5069020;28;20706;-71
2021/05/02 06:38:05;;;;;;;31.60;25.77;;;11.00;92.60;;;10.93;85.77;98007.25;5063694;28;20698;-71
2021/05/02 06:40:35;;;;;;;33.50;27.90;;;11.10;92.40;;;11.08;85.30;98016.59;5070425;28;20956;-71
2021/05/02 06:43:03;;;;;;;32.97;26.47;;;11.20;92.30;;;11.19;84.27;98021.88;5069509;28;21151;-71
2021/05/02 06:45:33;;;;;;;33.40;26.43;;;11.30;92.00;;;11.18;83.55;98021.97;5075763;28;20628;-71
2021/05/02 06:48:01;;;;;;;32.97;27.80;;;11.30;90.80;;;11.15;83.63;98020.41;5073498;28;20949;-71
2021/05/02 06:50:28;;;;;;;31.80;26.73;;;11.30;91.20;;;11.19;83.93;98027.09;5068257;28;20671;-71
2021/05/02 06:52:57;;;;;;;32.73;26.83;;;11.30;91.90;;;11.27;84.31;98029.97;5069306;28;20631;-71
2021/05/02 06:55:25;;;;;;;34.67;25.90;;;11.30;91.40;;;11.20;82.95;98027.91;5064895;28;21041;-70
2021/05/02 06:57:55;;;;;;;30.43;26.03;;;11.30;91.20;;;11.15;83.47;98030.03;5072968;28;20642;-69
2021/05/02 07:00:23;;;;;;;32.10;27.20;;;11.30;90.60;;;11.15;83.70;98024.81;5066343;28;20688;-72
2021/05/02 07:02:51;;;;;;;35.57;29.50;;;11.30;90.80;;;11.17;84.39;98035.97;5074092;28;20640;-70
2021/05/02 07:05:20;;;;;;;31.77;26.43;;;11.30;90.90;;;11.27;83.29;98035.19;5076887;28;22440;-70
2021/05/02 07:07:49;;;;;;;29.80;25.33;;;11.40;90.70;;;11.37;81.41;98029.19;5061912;28;20727;-71
2021/05/02 07:10:17;;;;;;;31.17;27.77;;;11.50;90.00;;;11.49;82.19;98035.34;5064521;28;20652;-71
2021/05/02 07:12:45;;;;;;;31.23;26.47;;;11.60;90.20;;;11.48;82.20;98034.50;5077305;28;20643;-69
2021/05/02 07:15:15;;;;;;;30.80;25.20;;;11.60;90.10;;;11.59;80.90;98041.56;5058538;28;20627;-74
2021/05/02 07:17:42;;;;;;;28.17;24.23;;;11.70;89.40;;;11.72;80.32;98044.97;5068503;28;20670;-70
2021/05/02 07:20:14;;;;;;;28.40;24.27;;;11.80;87.90;;;11.88;80.36;98041.09;5063754;28;20653;-70
2021/05/02 07:22:44;;;;;;;28.93;24.07;;;11.90;87.40;;;11.83;79.71;98048.44;5063176;28;21199;-70
2021/05/02 07:25:12;;;;;;;29.60;24.83;;;11.90;86.40;;;11.87;79.61;98047.25;5059856;28;20650;-70
2021/05/02 07:27:40;;;;;;;29.60;25.60;;;12.00;87.50;;;11.88;80.11;98052.38;5070909;28;20748;-71
2021/05/02 07:30:09;;;;;;;32.33;25.70;;;12.00;86.90;;;11.92;78.34;98058.19;5073676;28;21265;-70
2021/05/02 07:32:39;;;;;;;31.90;27.27;;;12.00;86.20;;;11.95;80.53;98056.22;5058381;28;20632;-70
2021/05/02 07:35:09;;;;;;;31.20;26.30;;;12.10;86.40;;;11.97;80.37;98056.91;5057394;28;21276;-73
2021/05/02 07:37:36;;;;;;;29.70;26.43;;;12.10;87.00;;;11.90;79.20;98060.09;5059530;28;20639;-70
2021/05/02 07:40:07;;;;;;;29.53;25.23;;;12.00;86.50;;;11.89;79.49;98055.81;5067252;28;20639;-72
2021/05/02 07:42:35;;;;;;;28.70;25.40;;;12.00;86.40;;;11.89;79.44;98056.66;5061911;28;20643;-70
2021/05/02 07:45:05;;;;;;;28.17;25.10;;;12.00;85.60;;;11.91;79.02;98060.00;5066537;28;20631;-70
2021/05/02 07:47:35;;;;;;;30.50;26.43;;;12.10;84.90;;;11.81;78.91;98064.22;5082155;28;21194;-70
2021/05/02 07:50:04;;;;;;;34.00;28.40;;;12.00;85.40;;;11.76;79.77;98068.97;5079643;28;20670;-70
2021/05/02 07:52:32;;;;;;;33.20;28.00;;;11.90;87.10;;;11.72;79.96;98068.47;5078036;28;21300;-70
2021/05/02 07:55:02;;;;;;;33.03;27.73;;;11.90;87.40;;;11.84;81.53;98077.06;5072990;28;20655;-70
2021/05/02 07:57:30;;;;;;;31.33;26.97;;;12.00;87.90;;;11.95;78.74;98076.28;5068471;28;20627;-71
2021/05/02 07:59:59;;;;;;;31.80;27.27;;;12.00;85.40;;;12.02;80.74;98074.88;5080860;28;21174;-70
2021/05/02 08:02:28;;;;;;;35.03;28.47;;;12.10;87.40;;;12.10;81.10;98078.56;5072076;28;21447;-70
2021/05/02 08:04:56;;;;;;;29.87;25.80;;;12.20;88.80;;;12.26;79.64;98079.94;5059949;28;20628;-70
2021/05/02 08:07:23;;;;;;;30.23;26.97;;;12.30;87.70;;;12.53;79.70;98080.47;5069392;28;20736;-70
2021/05/02 08:09:51;;;;;;;29.60;25.17;;;12.60;87.40;;;12.75;78.81;98078.69;5070560;28;20626;-70
2021/05/02 08:12:21;;;;;;;29.53;25.07;;;12.70;85.80;;;12.74;77.35;98079.66;5070719;28;20670;-70
2021/05/02 08:14:49;;;;;;;29.43;25.73;;;12.70;83.40;;;12.81;77.10;98082.66;5076685;28;20717;-70
2021/05/02 08:17:17;;;;;;;33.00;26.53;;;12.80;83.30;;;12.80;76.82;98078.34;5072573;28;20651;-70
2021/05/02 08:19:46;;;;;;;28.00;24.53;;;12.80;83.70;;;12.67;78.04;98084.63;5056509;28;20731;-71
2021/05/02 08:22:14;;;;;;;29.37;25.33;;;12.70;83.00;;;12.74;76.28;98082.25;5065894;28;20629;-75
2021/05/02 08:24:42;;;;;;;30.77;27.27;;;12.70;81.20;;;13.40;76.54;98083.09;5065364;28;20738;-71
2021/05/02 08:27:10;;;;;;;29.40;26.00;;;13.20;83.20;;;13.91;73.68;98097.25;5070407;28;21208;-73
2021/05/02 08:29:37;;;;;;;30.97;27.07;;;13.70;81.10;;;14.24;74.47;98100.59;5073319;28;20623;-73
2021/05/02 08:32:05;;;;;;;29.20;24.70;;;14.00;81.20;;;14.26;73.51;98102.09;5081115;28;20979;-73
2021/05/02 08:34:34;;;;;;;26.77;23.97;;;14.10;79.50;;;14.17;73.31;98099.41;5085692;28;20748;-72
2021/05/02 08:37:06;;;;;;;29.60;25.93;;;14.20;78.70;;;14.00;72.75;98094.69;5070648;28;20665;-72
2021/05/02 08:39:34;;;;;;;28.60;25.53;;;14.00;77.00;;;13.95;73.80;98094.25;5073934;28;21166;-73
2021/05/02 08:42:02;;;;;;;30.00;26.03;;;14.00;78.20;;;13.97;73.93;98107.25;5064547;28;20641;-73
2021/05/02 08:44:31;;;;;;;27.53;24.73;;;14.00;78.70;;;13.87;74.13;98107.13;5068970;28;20640;-73
2021/05/02 08:46:58;;;;;;;28.83;25.73;;;13.80;78.20;;;14.21;73.78;98100.84;5076680;28;20629;-73
2021/05/02 08:49:27;;;;;;;29.90;26.60;;;14.10;80.00;;;14.08;72.36;98100.19;5084100;28;20628;-73
2021/05/02 08:51:54;;;;;;;28.50;25.47;;;14.00;76.90;;;13.71;73.44;98096.25;5067617;28;20641;-75
2021/05/02 08:54:24;;;;;;;28.53;25.30;;;13.80;76.30;;;13.79;73.90;98099.06;5063804;28;20684;-73
2021/05/02 08:56:56;;;;;;;29.33;25.50;;;13.80;78.20;;;13.82;73.81;98103.25;5052606;28;20653;-73
2021/05/02 08:59:24;;;;;;;33.00;29.13;;;13.80;78.20;;;14.09;72.00;98098.38;5071145;28;20997;-73
2021/05/02 09:01:56;;;;;;;34.83;27.30;;;14.00;77.10;;;14.13;70.80;98091.94;5068903;28;20730;-73
2021/05/02 09:04:25;;;;;;;28.27;25.10;;;14.10;75.40;;;14.54;72.19;98100.63;5072238;28;20688;-74
2021/05/02 09:06:53;;;;;;;31.50;25.40;;;14.40;77.80;;;14.84;71.65;98106.75;5080628;28;20732;-74
2021/05/02 09:09:21;;;;;;;27.85;24.90;;;14.60;77.40;;;15.05;69.47;98107.56;5050842;28;20727;-74
2021/05/02 09:11:52;;;;;;;27.70;24.90;;;14.90;74.10;;;15.50;70.12;98099.19;5085216;28;20637;-74
2021/05/02 09:14:30;;;;;;;26.70;24.10;;;15.20;75.10;;;15.93;68.17;98109.22;5083732;28;20622;-74
2021/05/02 09:17:01;;;;;;;25.40;22.80;;;15.60;71.50;;;15.85;65.30;98093.28;5085130;28;20653;-74
2021/05/02 09:19:31;;;;;;;24.40;21.90;;;15.70;67.60;;;15.82;64.80;98101.47;5084030;28;21015;-74
2021/05/02 09:22:12;;;;;;;25.63;22.93;;;15.70;67.50;;;15.54;64.88;98097.94;5076276;28;20622;-74
2021/05/02 09:24:41;;;;;;;24.53;22.00;;;15.60;66.20;;;15.10;65.81;98098.31;5095817;28;20681;-74
2021/05/02 09:27:11;;;;;;;26.47;23.77;;;15.30;66.10;;;14.92;67.72;98102.53;5094016;28;20668;-74
2021/05/02 09:29:54;;;;;;;24.83;22.33;;;15.10;68.70;;;15.32;68.75;98108.66;5088859;28;20624;-74
2021/05/02 09:32:24;;;;;;;24.87;22.33;;;15.30;71.30;;;15.73;66.85;98099.66;5084226;28;21085;-74
2021/05/02 09:34:54;;;;;;;23.93;21.43;;;15.60;68.70;;;15.98;64.81;98103.53;5071171;28;21236;-74
2021/05/02 09:37:34;;;;;;;24.17;21.87;;;15.90;67.00;;;16.00;61.71;98107.72;5073400;28;21017;-74
2021/05/02 09:40:03;;;;;;;22.13;19.70;;;16.00;63.00;;;15.73;62.97;98102.28;5072056;28;20610;-74
2021/05/02 09:42:35;;;;;;;23.23;20.77;;;15.80;62.50;;;15.70;61.81;98110.44;5081035;28;20674;-74
2021/05/02 09:45:07;;;;;;;24.93;22.00;;;15.80;61.70;;;15.43;62.56;98098.06;5083854;28;20712;-74
2021/05/02 09:47:37;;;;;;;22.97;20.57;;;15.60;60.20;;;15.26;61.87;98109.19;5070480;28;20623;-74
2021/05/02 09:50:13;;;;;;;23.97;21.47;;;15.50;61.30;;;14.98;64.64;98115.13;5059142;28;20683;-74
2021/05/02 09:52:49;;;;;;;21.63;19.43;;;15.20;61.60;;;14.89;62.66;98104.59;5075156;28;20637;-74
2021/05/02 09:55:26;;;;;;;23.33;20.93;;;15.20;61.80;;;14.85;64.41;98114.50;5084070;28;21175;-74
2021/05/02 09:58:04;;;;;;;23.77;21.37;;;15.10;62.40;;;14.73;64.45;98112.94;5082684;28;20628;-74
2021/05/02 10:00:37;;;;;;;24.70;21.50;;;15.00;62.90;;;14.56;64.30;98112.69;5090786;28;20628;-74
2021/05/02 10:03:10;;;;;;;26.33;23.63;;;14.90;62.00;;;14.42;63.58;98114.81;5073874;28;20996;-74
2021/05/02 10:05:57;;;;;;;23.87;21.43;;;14.70;62.00;;;14.32;63.74;98114.72;5090477;28;20674;-74
2021/05/02 10:08:29;;;;;;;23.33;20.90;;;14.60;62.90;;;14.26;65.81;98119.66;5076845;28;21153;-74
2021/05/02 10:10:59;;;;;;;25.07;22.37;;;14.40;63.70;;;14.24;66.17;98122.41;5073018;28;20636;-74
2021/05/02 10:13:27;;;;;;;28.83;25.73;;;14.40;64.70;;;14.21;65.15;98117.41;5068541;28;20965;-74
2021/05/02 10:15:57;;;;;;;26.33;23.23;;;14.40;64.10;;;14.15;64.82;98115.28;5079973;28;20699;-74
2021/05/02 10:18:25;;;;;;;24.37;21.53;;;14.40;63.50;;;14.08;63.82;98105.41;5071682;28;20613;-74
2021/05/02 10:20:54;;;;;;;22.57;20.27;;;14.20;61.20;;;13.97;63.41;98117.72;5074767;28;20619;-74
2021/05/02 10:23:21;;;;;;;24.53;21.87;;;14.10;61.40;;;13.80;64.64;98119.09;5088925;28;20629;-74